Time;durP1;ratioP1;P1;durP2;ratioP2;P2;SDS_P1;SDS_P2;PMS_P1;PMS_P2;Temp;Humidity;BMP_temperature;BMP_pressure;BME280_temperature;BME280_humidity;BME280_pressure;Samples;Min_cycle;Max_cycle;Signal;HPM_P1;HPM_P2
2022/03/13 00:01:47;;;;;;;14.27;5.13;;;;;;;;;;6180296;23;20175;-89
2022/03/13 00:04:57;;;;;;;16.53;5.40;;;;;;;;;;6182022;23;20191;-88
2022/03/13 00:08:04;;;;;;;21.40;5.07;;;;;;;;;;6181123;23;20172;-87
2022/03/13 00:11:17;;;;;;;14.80;5.47;;;;;;;;;;6181043;23;20473;-87
2022/03/13 00:14:24;;;;;;;13.17;5.13;;;;;;;;;;6180993;23;20160;-90
2022/03/13 00:17:30;;;;;;;13.53;5.40;;;;;;;;;;6183345;23;20184;-89
2022/03/13 00:20:35;;;;;;;16.97;5.60;;;;;;;;;;6180879;23;20175;-89
2022/03/13 00:23:42;;;;;;;15.10;5.13;;;;;;;;;;6179714;23;20167;-89
2022/03/13 00:26:47;;;;;;;23.10;5.67;;;;;;;;;;6180695;23;20228;-88
2022/03/13 00:29:52;;;;;;;16.93;5.63;;;;;;;;;;6181721;23;20168;-89
2022/03/13 00:33:00;;;;;;;13.00;5.10;;;;;;;;;;6180953;23;20193;-89
2022/03/13 00:36:08;;;;;;;15.67;5.67;;;;;;;;;;6181181;23;20215;-88
2022/03/13 00:39:15;;;;;;;17.07;4.73;;;;;;;;;;6178759;23;20328;-89
2022/03/13 00:42:20;;;;;;;13.00;5.03;;;;;;;;;;6178792;23;20229;-88
2022/03/13 00:45:25;;;;;;;12.23;4.60;;;;;;;;;;6179506;23;20176;-89
2022/03/13 00:48:30;;;;;;;14.67;4.83;;;;;;;;;;6178385;23;20280;-88
2022/03/13 00:51:36;;;;;;;12.93;4.50;;;;;;;;;;6178929;23;20171;-88
2022/03/13 00:54:42;;;;;;;15.10;4.67;;;;;;;;;;6178552;23;20168;-88
2022/03/13 00:57:47;;;;;;;14.17;4.87;;;;;;;;;;6178878;23;20199;-86
2022/03/13 01:00:52;;;;;;;13.00;4.70;;;;;;;;;;6179804;23;20179;-87
2022/03/13 01:03:58;;;;;;;14.33;5.50;;;;;;;;;;6180505;23;20168;-88
2022/03/13 01:07:03;;;;;;;16.67;5.43;;;;;;;;;;6167596;23;20220;-90
2022/03/13 01:10:09;;;;;;;11.43;4.60;;;;;;;;;;6168451;23;20261;-87
2022/03/13 01:13:17;;;;;;;10.40;4.40;;;;;;;;;;6168124;23;20176;-89
2022/03/13 01:16:23;;;;;;;10.77;4.47;;;;;;;;;;6168045;23;20159;-88
2022/03/13 01:19:28;;;;;;;17.17;4.63;;;;;;;;;;6167774;23;20243;-88
2022/03/13 01:22:34;;;;;;;20.80;4.47;;;;;;;;;;6166988;23;20245;-89
2022/03/13 01:25:40;;;;;;;9.03;4.67;;;;;;;;;;6166982;23;20185;-88
2022/03/13 01:28:46;;;;;;;10.20;4.30;;;;;;;;;;6167548;23;20164;-88
2022/03/13 01:31:51;;;;;;;11.30;5.00;;;;;;;;;;6169420;23;20172;-88
2022/03/13 01:35:09;;;;;;;9.17;4.07;;;;;;;;;;6167833;23;20169;-87
2022/03/13 01:38:15;;;;;;;11.70;4.00;;;;;;;;;;6167643;23;20227;-89
2022/03/13 01:41:21;;;;;;;11.80;4.63;;;;;;;;;;6167302;23;20169;-88
2022/03/13 01:44:27;;;;;;;14.37;5.17;;;;;;;;;;6168403;23;20274;-87
2022/03/13 01:47:41;;;;;;;16.20;6.30;;;;;;;;;;6169478;23;20168;-88
2022/03/13 01:50:49;;;;;;;15.40;5.73;;;;;;;;;;6170922;23;20236;-87
2022/03/13 01:53:55;;;;;;;15.53;6.13;;;;;;;;;;6169731;23;20176;-88
2022/03/13 01:57:03;;;;;;;16.03;6.13;;;;;;;;;;6169732;23;20240;-88
2022/03/13 02:00:09;;;;;;;14.00;5.23;;;;;;;;;;6171177;23;20176;-89
2022/03/13 02:03:24;;;;;;;12.47;5.10;;;;;;;;;;6170457;23;20237;-89
2022/03/13 02:06:29;;;;;;;14.07;4.87;;;;;;;;;;6168555;23;20196;-88
2022/03/13 02:09:35;;;;;;;15.00;4.53;;;;;;;;;;6168995;23;20563;-90
2022/03/13 02:12:47;;;;;;;14.43;4.73;;;;;;;;;;6167695;23;20230;-88
2022/03/13 02:15:55;;;;;;;14.60;4.60;;;;;;;;;;6167697;23;20229;-87
2022/03/13 02:19:00;;;;;;;10.23;4.30;;;;;;;;;;6167883;23;20320;-88
2022/03/13 02:22:07;;;;;;;10.13;4.10;;;;;;;;;;6167750;23;20167;-88
2022/03/13 02:25:18;;;;;;;10.57;4.50;;;;;;;;;;6169982;23;20173;-88
2022/03/13 02:28:25;;;;;;;12.53;4.63;;;;;;;;;;6172334;23;20200;-88
2022/03/13 02:31:32;;;;;;;10.77;4.30;;;;;;;;;;6167608;23;20165;-89
2022/03/13 02:34:40;;;;;;;13.33;4.43;;;;;;;;;;6168235;23;20180;-89
2022/03/13 02:37:45;;;;;;;13.60;4.63;;;;;;;;;;6167469;23;20173;-88
2022/03/13 02:40:54;;;;;;;15.23;7.23;;;;;;;;;;6168510;23;20188;-87
2022/03/13 02:43:59;;;;;;;13.93;5.03;;;;;;;;;;6168825;23;20176;-88
2022/03/13 02:47:09;;;;;;;16.57;5.10;;;;;;;;;;6167806;23;20149;-88
2022/03/13 02:50:14;;;;;;;15.17;5.23;;;;;;;;;;6167841;23;20244;-88
2022/03/13 02:53:23;;;;;;;12.67;5.80;;;;;;;;;;6166700;23;20189;-88
2022/03/13 02:56:30;;;;;;;10.67;4.50;;;;;;;;;;6168968;23;20172;-88
2022/03/13 02:59:35;;;;;;;12.40;5.00;;;;;;;;;;6169278;23;20655;-88
2022/03/13 03:02:41;;;;;;;9.80;4.30;;;;;;;;;;6170727;23;20175;-88
2022/03/13 03:05:48;;;;;;;11.37;4.50;;;;;;;;;;6150713;23;20280;-89
2022/03/13 03:08:53;;;;;;;14.97;4.70;;;;;;;;;;6174678;23;20644;-89
2022/03/13 03:12:04;;;;;;;14.10;5.23;;;;;;;;;;6175155;23;20196;-87
2022/03/13 03:15:10;;;;;;;13.37;4.97;;;;;;;;;;6169784;23;20177;-87
2022/03/13 03:18:16;;;;;;;9.33;3.97;;;;;;;;;;6169551;23;20173;-87
2022/03/13 03:21:21;;;;;;;9.50;4.47;;;;;;;;;;6168958;23;20173;-88
2022/03/13 03:24:30;;;;;;;9.57;3.67;;;;;;;;;;6169931;23;20156;-87
2022/03/13 03:27:40;;;;;;;8.90;4.10;;;;;;;;;;6168079;23;20247;-89
2022/03/13 03:30:48;;;;;;;7.13;3.27;;;;;;;;;;6169839;23;20220;-88
2022/03/13 03:33:53;;;;;;;10.53;4.37;;;;;;;;;;6170119;23;20157;-89
2022/03/13 03:37:00;;;;;;;9.10;4.23;;;;;;;;;;6170451;23;20165;-90
2022/03/13 03:40:07;;;;;;;8.67;3.67;;;;;;;;;;6169384;23;20251;-89
2022/03/13 03:43:14;;;;;;;10.00;4.07;;;;;;;;;;6170871;23;20212;-90
2022/03/13 03:46:22;;;;;;;10.17;4.20;;;;;;;;;;6172844;23;20218;-89
2022/03/13 03:49:27;;;;;;;8.53;3.57;;;;;;;;;;6169074;23;20169;-89
2022/03/13 03:52:32;;;;;;;9.17;3.83;;;;;;;;;;6169623;23;20169;-87
2022/03/13 03:55:37;;;;;;;10.53;3.90;;;;;;;;;;6167212;23;20188;-88
2022/03/13 03:58:44;;;;;;;7.20;3.60;;;;;;;;;;6170549;23;20192;-88
2022/03/13 04:01:49;;;;;;;13.80;4.00;;;;;;;;;;6169932;23;20500;-88
2022/03/13 04:04:56;;;;;;;13.40;4.77;;;;;;;;;;6171392;23;20168;-88
2022/03/13 04:08:01;;;;;;;11.93;3.90;;;;;;;;;;6182902;23;20168;-88
2022/03/13 04:11:08;;;;;;;13.53;4.37;;;;;;;;;;6181232;23;20176;-88
2022/03/13 04:14:17;;;;;;;11.50;4.17;;;;;;;;;;6184373;23;20217;-88
2022/03/13 04:17:22;;;;;;;7.73;3.60;;;;;;;;;;6182981;23;20165;-89
2022/03/13 04:20:30;;;;;;;10.20;4.20;;;;;;;;;;6182266;23;20204;-89
2022/03/13 04:23:36;;;;;;;12.27;5.00;;;;;;;;;;6181483;23;20176;-88
2022/03/13 04:26:41;;;;;;;8.60;4.40;;;;;;;;;;6181794;23;20176;-88
2022/03/13 04:29:48;;;;;;;12.43;4.33;;;;;;;;;;6198868;23;20176;-88
2022/03/13 04:32:56;;;;;;;13.80;4.47;;;;;;;;;;6181447;23;20216;-87
2022/03/13 04:36:12;;;;;;;11.43;3.83;;;;;;;;;;6179841;23;20615;-89
2022/03/13 04:39:18;;;;;;;10.33;4.37;;;;;;;;;;6181835;23;20196;-88
2022/03/13 04:42:25;;;;;;;10.20;3.70;;;;;;;;;;6180929;23;20238;-87
2022/03/13 04:45:31;;;;;;;10.60;3.90;;;;;;;;;;6180114;23;20247;-88
2022/03/13 04:48:36;;;;;;;10.07;3.93;;;;;;;;;;6180831;23;20167;-88
2022/03/13 04:51:41;;;;;;;10.93;4.43;;;;;;;;;;6181287;23;20168;-87
2022/03/13 04:54:46;;;;;;;9.07;4.23;;;;;;;;;;6197781;23;20176;-88
2022/03/13 04:57:51;;;;;;;11.03;4.20;;;;;;;;;;6179122;23;20172;-88
2022/03/13 05:00:59;;;;;;;9.97;4.03;;;;;;;;;;6179572;23;20176;-88
2022/03/13 05:04:05;;;;;;;10.50;4.67;;;;;;;;;;6179278;23;20176;-88
2022/03/13 05:07:11;;;;;;;11.10;4.77;;;;;;;;;;6165808;23;20200;-89
2022/03/13 05:10:19;;;;;;;11.23;4.60;;;;;;;;;;6168140;23;20180;-89
2022/03/13 05:13:24;;;;;;;11.30;4.33;;;;;;;;;;6169257;23;20172;-89
2022/03/13 05:16:32;;;;;;;10.80;4.43;;;;;;;;;;6166059;23;20232;-87
2022/03/13 05:19:38;;;;;;;9.17;4.17;;;;;;;;;;6166182;23;20192;-87
2022/03/13 05:22:47;;;;;;;11.43;4.27;;;;;;;;;;6165803;23;20240;-88
2022/03/13 05:25:53;;;;;;;11.57;4.47;;;;;;;;;;6168442;23;20169;-87
2022/03/13 05:28:58;;;;;;;11.97;4.33;;;;;;;;;;6168132;23;20237;-87
2022/03/13 05:32:05;;;;;;;13.30;4.10;;;;;;;;;;6166982;23;20240;-90
2022/03/13 05:35:12;;;;;;;9.43;3.83;;;;;;;;;;6166002;23;20176;-87
2022/03/13 05:38:18;;;;;;;7.77;3.97;;;;;;;;;;6166327;23;20217;-89
2022/03/13 05:41:23;;;;;;;8.23;3.57;;;;;;;;;;6165950;23;20212;-87
2022/03/13 05:44:29;;;;;;;9.83;4.57;;;;;;;;;;6167798;23;20168;-87
2022/03/13 05:47:43;;;;;;;8.80;3.80;;;;;;;;;;6165534;23;20219;-88
2022/03/13 05:50:48;;;;;;;8.03;3.60;;;;;;;;;;6167764;23;20165;-87
2022/03/13 05:53:53;;;;;;;9.20;3.77;;;;;;;;;;6165851;23;20169;-88
2022/03/13 05:57:03;;;;;;;10.13;3.47;;;;;;;;;;6168011;23;20553;-91
2022/03/13 06:00:10;;;;;;;11.13;4.53;;;;;;;;;;6168379;23;20804;-88
2022/03/13 06:03:23;;;;;;;10.60;4.30;;;;;;;;;;6167575;23;20177;-88
2022/03/13 06:06:32;;;;;;;9.23;4.17;;;;;;;;;;6167725;23;20239;-89
2022/03/13 06:09:37;;;;;;;11.53;4.33;;;;;;;;;;6166446;23;20243;-89
2022/03/13 06:12:42;;;;;;;11.90;5.30;;;;;;;;;;6166677;23;20164;-89
2022/03/13 06:15:47;;;;;;;9.53;4.07;;;;;;;;;;6165921;23;20168;-88
2022/03/13 06:18:53;;;;;;;11.40;4.57;;;;;;;;;;6167614;23;20177;-88
2022/03/13 06:22:00;;;;;;;8.97;4.30;;;;;;;;;;6168571;23;20176;-89
2022/03/13 06:25:07;;;;;;;13.00;4.70;;;;;;;;;;6166772;23;20176;-88
2022/03/13 06:28:13;;;;;;;11.93;3.93;;;;;;;;;;6168742;23;20168;-88
2022/03/13 06:31:18;;;;;;;12.43;4.63;;;;;;;;;;6169768;23;20189;-88
2022/03/13 06:34:25;;;;;;;9.70;4.03;;;;;;;;;;6169886;23;20245;-89
2022/03/13 06:37:32;;;;;;;10.87;4.30;;;;;;;;;;6169684;23;20208;-88
2022/03/13 06:40:38;;;;;;;8.97;4.47;;;;;;;;;;6166338;23;20193;-88
2022/03/13 06:43:43;;;;;;;12.80;5.07;;;;;;;;;;6169544;23;20153;-88
2022/03/13 06:46:48;;;;;;;12.83;5.27;;;;;;;;;;6167740;23;20163;-88
2022/03/13 06:49:56;;;;;;;13.33;4.83;;;;;;;;;;6167808;23;20164;-88
2022/03/13 06:53:04;;;;;;;9.43;4.23;;;;;;;;;;6169484;23;20157;-88
2022/03/13 06:56:09;;;;;;;10.97;4.37;;;;;;;;;;6168946;23;20172;-88
2022/03/13 06:59:14;;;;;;;10.33;4.73;;;;;;;;;;6169683;23;20172;-88
2022/03/13 07:02:19;;;;;;;11.87;4.90;;;;;;;;;;6169390;23;20265;-88
2022/03/13 07:05:26;;;;;;;11.93;4.63;;;;;;;;;;6176626;23;20199;-89
2022/03/13 07:08:33;;;;;;;17.17;4.27;;;;;;;;;;6181895;23;20175;-88
2022/03/13 07:11:47;;;;;;;10.23;4.60;;;;;;;;;;6184062;23;20167;-88
2022/03/13 07:14:52;;;;;;;11.80;4.67;;;;;;;;;;6184349;23;20197;-88
2022/03/13 07:17:58;;;;;;;14.53;4.67;;;;;;;;;;6182427;23;20223;-87
2022/03/13 07:21:04;;;;;;;11.73;5.30;;;;;;;;;;6182061;23;20200;-88
2022/03/13 07:24:10;;;;;;;11.73;4.67;;;;;;;;;;6182543;23;20156;-90
2022/03/13 07:27:15;;;;;;;12.50;5.10;;;;;;;;;;6182945;23;20172;-88
2022/03/13 07:30:21;;;;;;;10.13;4.57;;;;;;;;;;6181170;23;20171;-87
2022/03/13 07:33:26;;;;;;;12.93;5.43;;;;;;;;;;6183098;23;20164;-88
2022/03/13 07:36:34;;;;;;;11.10;5.27;;;;;;;;;;6166949;23;20180;-88
2022/03/13 07:39:41;;;;;;;12.20;5.43;;;;;;;;;;6184230;23;20200;-88
2022/03/13 07:42:47;;;;;;;18.40;5.57;;;;;;;;;;6182066;23;20171;-89
2022/03/13 07:45:52;;;;;;;11.67;5.27;;;;;;;;;;6183571;23;20151;-89
2022/03/13 07:49:00;;;;;;;15.10;6.07;;;;;;;;;;6184049;23;20156;-90
2022/03/13 07:52:07;;;;;;;17.40;6.37;;;;;;;;;;6183121;23;20491;-88
2022/03/13 07:55:14;;;;;;;20.00;6.37;;;;;;;;;;6181527;23;20175;-88
2022/03/13 07:58:20;;;;;;;21.50;6.30;;;;;;;;;;6182062;23;20179;-88
2022/03/13 08:01:25;;;;;;;15.80;6.07;;;;;;;;;;6180421;23;20198;-87
2022/03/13 08:04:31;;;;;;;15.40;6.03;;;;;;;;;;6179486;23;20168;-86
2022/03/13 08:07:38;;;;;;;19.30;6.80;;;;;;;;;;6167403;23;20176;-88
2022/03/13 08:10:44;;;;;;;19.10;5.87;;;;;;;;;;6169596;23;20173;-88
2022/03/13 08:13:50;;;;;;;16.30;6.67;;;;;;;;;;6170075;23;20172;-89
2022/03/13 08:16:55;;;;;;;15.20;6.33;;;;;;;;;;6168951;23;20165;-90
2022/03/13 08:20:00;;;;;;;12.47;5.50;;;;;;;;;;6168804;23;20530;-89
2022/03/13 08:23:07;;;;;;;15.60;5.63;;;;;;;;;;6169958;23;20169;-89
2022/03/13 08:26:12;;;;;;;15.00;5.67;;;;;;;;;;6170365;23;20180;-89
2022/03/13 08:29:17;;;;;;;10.03;3.83;;;;;;;;;;6169666;23;20271;-89
2022/03/13 08:32:23;;;;;;;12.63;5.33;;;;;;;;;;6169857;23;20607;-89
2022/03/13 08:35:29;;;;;;;11.93;5.70;;;;;;;;;;6168593;23;20216;-89
2022/03/13 08:38:36;;;;;;;12.20;5.20;;;;;;;;;;6168433;23;20165;-90
2022/03/13 08:41:42;;;;;;;16.10;6.00;;;;;;;;;;6167361;23;20212;-90
2022/03/13 08:44:48;;;;;;;16.43;5.93;;;;;;;;;;6169442;23;20612;-90
2022/03/13 08:47:53;;;;;;;15.33;5.87;;;;;;;;;;6168808;23;20216;-86
2022/03/13 08:50:59;;;;;;;15.77;5.77;;;;;;;;;;6172182;23;20168;-89
2022/03/13 08:54:07;;;;;;;13.47;5.07;;;;;;;;;;6170531;23;20194;-88
2022/03/13 08:57:14;;;;;;;12.20;5.63;;;;;;;;;;6169784;23;20172;-89
2022/03/13 09:00:21;;;;;;;17.20;5.70;;;;;;;;;;6169869;23;20316;-89
2022/03/13 09:03:28;;;;;;;13.77;6.07;;;;;;;;;;6169435;23;20231;-88
2022/03/13 09:06:33;;;;;;;15.80;5.67;;;;;;;;;;6169085;23;20386;-89
2022/03/13 09:09:41;;;;;;;17.30;6.40;;;;;;;;;;6169857;23;20164;-89
2022/03/13 09:12:48;;;;;;;15.57;5.57;;;;;;;;;;6170336;23;20156;-90
2022/03/13 09:15:57;;;;;;;12.60;5.70;;;;;;;;;;6167540;23;20176;-89
2022/03/13 09:19:06;;;;;;;13.10;5.93;;;;;;;;;;6166834;23;20176;-89
2022/03/13 09:22:13;;;;;;;13.47;5.80;;;;;;;;;;6168296;23;20296;-89
2022/03/13 09:25:20;;;;;;;10.27;5.63;;;;;;;;;;6169044;23;20172;-90
2022/03/13 09:28:26;;;;;;;15.20;6.03;;;;;;;;;;6167167;23;20674;-88
2022/03/13 09:31:32;;;;;;;16.37;6.17;;;;;;;;;;6168997;23;20167;-89
2022/03/13 09:34:40;;;;;;;16.10;6.07;;;;;;;;;;6168396;23;20503;-89
2022/03/13 09:37:45;;;;;;;11.83;5.77;;;;;;;;;;6167622;23;20172;-90
2022/03/13 09:40:51;;;;;;;18.37;5.70;;;;;;;;;;6166989;23;20192;-88
2022/03/13 09:43:57;;;;;;;12.20;5.67;;;;;;;;;;6167261;23;20184;-89
2022/03/13 09:47:02;;;;;;;14.00;6.40;;;;;;;;;;6168625;23;20184;-89
2022/03/13 09:50:11;;;;;;;12.67;6.20;;;;;;;;;;6169958;23;20193;-90
2022/03/13 09:53:17;;;;;;;11.47;5.80;;;;;;;;;;6172962;23;20172;-90
2022/03/13 09:56:23;;;;;;;27.30;6.60;;;;;;;;;;6165428;23;20168;-90
2022/03/13 09:59:29;;;;;;;13.63;5.93;;;;;;;;;;6166363;23;20225;-88
2022/03/13 10:02:36;;;;;;;19.83;6.87;;;;;;;;;;6165613;23;20218;-89
2022/03/13 10:05:44;;;;;;;17.83;6.47;;;;;;;;;;6176944;23;20627;-88
2022/03/13 10:08:50;;;;;;;17.77;6.30;;;;;;;;;;6179633;23;20232;-89
2022/03/13 10:12:05;;;;;;;15.43;5.60;;;;;;;;;;6180587;23;20167;-89
2022/03/13 10:15:12;;;;;;;15.03;6.63;;;;;;;;;;6179312;23;20555;-87
2022/03/13 10:18:18;;;;;;;20.30;6.27;;;;;;;;;;6180299;23;20246;-88
2022/03/13 10:21:23;;;;;;;11.53;5.80;;;;;;;;;;6178674;23;20198;-89
2022/03/13 10:24:36;;;;;;;13.30;6.17;;;;;;;;;;6180692;23;20184;-89
2022/03/13 10:27:43;;;;;;;16.70;6.57;;;;;;;;;;6180140;23;20192;-90
2022/03/13 10:31:05;;;;;;;14.43;6.07;;;;;;;;;;6179155;23;20176;-89
2022/03/13 10:34:11;;;;;;;13.43;5.87;;;;;;;;;;6179841;23;20171;-88
2022/03/13 10:37:20;;;;;;;10.88;5.30;;;;;;;;;;6180580;23;20218;-89
2022/03/13 10:40:26;;;;;;;13.13;5.80;;;;;;;;;;6182192;23;20191;-89
2022/03/13 10:43:37;;;;;;;12.70;6.05;;;;;;;;;;6179821;23;20227;-90
2022/03/13 10:46:43;;;;;;;16.90;6.28;;;;;;;;;;6180068;23;20164;-87
2022/03/13 10:49:49;;;;;;;14.00;6.32;;;;;;;;;;6180334;23;20160;-89
2022/03/13 10:52:54;;;;;;;16.77;6.00;;;;;;;;;;6179713;23;20168;-90
2022/03/13 10:56:08;;;;;;;12.18;6.10;;;;;;;;;;6180539;23;20603;-90
2022/03/13 10:59:18;;;;;;;10.95;5.80;;;;;;;;;;6180771;23;20183;-91
2022/03/13 11:02:29;;;;;;;12.70;5.72;;;;;;;;;;6178709;23;20309;-90
2022/03/13 11:05:35;;;;;;;11.18;6.05;;;;;;;;;;6179590;23;20215;-89
2022/03/13 11:08:41;;;;;;;10.73;5.90;;;;;;;;;;6181022;23;20171;-88
2022/03/13 11:11:49;;;;;;;11.73;6.32;;;;;;;;;;6180606;23;20207;-89
2022/03/13 11:14:58;;;;;;;10.98;5.55;;;;;;;;;;6178849;23;20240;-90
2022/03/13 11:18:03;;;;;;;10.95;5.47;;;;;;;;;;6179541;23;20176;-90
2022/03/13 11:21:08;;;;;;;10.48;5.80;;;;;;;;;;6183479;23;20204;-90
2022/03/13 11:24:14;;;;;;;11.68;6.40;;;;;;;;;;6181608;23;20180;-90
2022/03/13 11:27:20;;;;;;;11.32;5.63;;;;;;;;;;6184172;23;20195;-89
2022/03/13 11:30:34;;;;;;;8.13;5.30;;;;;;;;;;6182946;23;20183;-89
2022/03/13 11:33:44;;;;;;;15.32;5.82;;;;;;;;;;6180360;23;20287;-89
2022/03/13 11:36:49;;;;;;;9.88;5.90;;;;;;;;;;6180622;23;20152;-90
2022/03/13 11:40:00;;;;;;;15.48;5.00;;;;;;;;;;6183107;23;20167;-88
2022/03/13 11:43:10;;;;;;;11.65;5.43;;;;;;;;;;6184303;23;20166;-90
2022/03/13 11:46:37;;;;;;;10.82;5.00;;;;;;;;;;6183114;23;20184;-92
2022/03/13 11:49:42;;;;;;;11.00;5.55;;;;;;;;;;6180176;23;20252;-92
2022/03/13 11:52:50;;;;;;;8.75;4.97;;;;;;;;;;6181887;23;20287;-91
2022/03/13 11:56:09;;;;;;;8.23;4.93;;;;;;;;;;6184867;23;20181;-91
2022/03/13 11:59:16;;;;;;;9.80;4.50;;;;;;;;;;6180906;23;20175;-91
2022/03/13 12:02:46;;;;;;;7.53;4.80;;;;;;;;;;6183359;23;20196;-90
2022/03/13 12:05:52;;;;;;;10.82;4.60;;;;;;;;;;6170562;23;20191;-90
2022/03/13 12:09:06;;;;;;;9.50;4.95;;;;;;;;;;6169179;23;20200;-89
2022/03/13 12:12:14;;;;;;;10.63;4.43;;;;;;;;;;6168151;23;20196;-87
2022/03/13 12:15:23;;;;;;;9.90;4.20;;;;;;;;;;6168027;23;20188;-89
2022/03/13 12:18:31;;;;;;;9.75;4.60;;;;;;;;;;6166804;23;20176;-90
2022/03/13 12:21:37;;;;;;;6.60;3.95;;;;;;;;;;6169181;23;20247;-87
2022/03/13 12:24:49;;;;;;;9.70;4.57;;;;;;;;;;6168876;23;20238;-90
2022/03/13 12:27:55;;;;;;;6.60;3.58;;;;;;;;;;6166955;23;20203;-88
2022/03/13 12:31:01;;;;;;;7.55;4.05;;;;;;;;;;6167931;23;20184;-90
2022/03/13 12:34:09;;;;;;;7.88;4.03;;;;;;;;;;6167134;23;20184;-90
2022/03/13 12:37:14;;;;;;;12.00;4.80;;;;;;;;;;6166318;23;20173;-90
2022/03/13 12:40:21;;;;;;;9.82;4.10;;;;;;;;;;6167414;23;20164;-90
2022/03/13 12:43:28;;;;;;;10.15;4.07;;;;;;;;;;6166697;23;20172;-89
2022/03/13 12:46:34;;;;;;;9.90;3.97;;;;;;;;;;6168310;23;20224;-90
2022/03/13 12:49:40;;;;;;;9.18;4.35;;;;;;;;;;6168178;23;20176;-90
2022/03/13 12:52:55;;;;;;;6.28;3.20;;;;;;;;;;6169115;23;20193;-89
2022/03/13 12:55:59;;;;;;;6.90;3.33;;;;;;;;;;6168489;23;20543;-89
2022/03/13 12:59:05;;;;;;;9.32;4.15;;;;;;;;;;6168235;23;20164;-90
2022/03/13 13:02:14;;;;;;;7.95;3.97;;;;;;;;;;6165514;23;20603;-89
2022/03/13 13:05:21;;;;;;;7.65;3.85;;;;;;;;;;6173429;23;20190;-89
2022/03/13 13:08:36;;;;;;;11.18;3.97;;;;;;;;;;6178676;23;20226;-88
2022/03/13 13:11:43;;;;;;;8.07;3.78;;;;;;;;;;6177402;23;20251;-90
2022/03/13 13:14:49;;;;;;;6.80;3.50;;;;;;;;;;6177830;23;20238;-90
2022/03/13 13:17:55;;;;;;;6.55;3.60;;;;;;;;;;6179545;23;20172;-88
2022/03/13 13:21:10;;;;;;;7.28;3.58;;;;;;;;;;6180544;23;20223;-89
2022/03/13 13:24:34;;;;;;;10.52;4.30;;;;;;;;;;6179027;23;20172;-90
2022/03/13 13:27:40;;;;;;;5.65;3.15;;;;;;;;;;6179989;23;20164;-89
2022/03/13 13:30:46;;;;;;;6.18;3.78;;;;;;;;;;6179765;23;20176;-88
2022/03/13 13:33:51;;;;;;;18.95;7.70;;;;;;;;;;6180427;23;20152;-88
2022/03/13 13:37:09;;;;;;;6.38;3.30;;;;;;;;;;6179957;23;20176;-87
2022/03/13 13:40:15;;;;;;;7.18;3.33;;;;;;;;;;6180894;23;20175;-88
2022/03/13 13:43:28;;;;;;;13.90;4.25;;;;;;;;;;6180045;23;20627;-87
2022/03/13 13:46:33;;;;;;;9.68;3.85;;;;;;;;;;6179181;23;20168;-89
2022/03/13 13:49:38;;;;;;;6.22;3.47;;;;;;;;;;6179190;23;20168;-87
2022/03/13 13:52:59;;;;;;;11.30;4.00;;;;;;;;;;6179534;23;20199;-88
2022/03/13 13:56:15;;;;;;;7.53;3.33;;;;;;;;;;6180269;23;20172;-90
2022/03/13 13:59:22;;;;;;;5.72;3.15;;;;;;;;;;6183694;23;20168;-89
2022/03/13 14:02:27;;;;;;;11.27;3.65;;;;;;;;;;6179928;23;20167;-89
2022/03/13 14:05:33;;;;;;;6.75;4.10;;;;;;;;;;6179662;23;20236;-90
2022/03/13 14:08:38;;;;;;;6.40;3.50;;;;;;;;;;6178709;23;20180;-89
2022/03/13 14:11:49;;;;;;;10.80;4.45;;;;;;;;;;6179246;23;20541;-89
2022/03/13 14:14:55;;;;;;;8.23;3.88;;;;;;;;;;6179202;23;20168;-88
2022/03/13 14:18:01;;;;;;;7.07;3.50;;;;;;;;;;6179436;23;20183;-89
2022/03/13 14:21:06;;;;;;;8.68;3.60;;;;;;;;;;6180152;23;20740;-90
2022/03/13 14:24:12;;;;;;;8.52;3.95;;;;;;;;;;6178971;23;20175;-89
2022/03/13 14:27:20;;;;;;;7.88;4.10;;;;;;;;;;6178745;23;20203;-89
2022/03/13 14:30:25;;;;;;;6.85;3.60;;;;;;;;;;6179289;23;20207;-89
2022/03/13 14:33:32;;;;;;;6.40;3.50;;;;;;;;;;6179427;23;20195;-89
2022/03/13 14:36:40;;;;;;;7.22;3.72;;;;;;;;;;6179494;23;20171;-89
2022/03/13 14:39:46;;;;;;;6.40;3.80;;;;;;;;;;6178714;23;20176;-90
2022/03/13 14:42:53;;;;;;;6.22;3.47;;;;;;;;;;6180292;23;20214;-90
2022/03/13 14:45:58;;;;;;;9.23;3.50;;;;;;;;;;6180380;23;20224;-88
2022/03/13 14:49:03;;;;;;;7.30;4.00;;;;;;;;;;6180670;23;20188;-90
2022/03/13 14:52:09;;;;;;;5.55;3.38;;;;;;;;;;6181425;23;20195;-90
2022/03/13 14:55:15;;;;;;;6.93;3.60;;;;;;;;;;6181356;23;20175;-87
2022/03/13 14:58:22;;;;;;;9.20;4.03;;;;;;;;;;6182453;23;20171;-89
2022/03/13 15:01:29;;;;;;;5.80;3.53;;;;;;;;;;6181288;23;20207;-90
2022/03/13 15:04:34;;;;;;;5.07;3.45;;;;;;;;;;6181333;23;20627;-89
2022/03/13 15:07:40;;;;;;;5.80;3.28;;;;;;;;;;6183092;23;20171;-89
2022/03/13 15:10:45;;;;;;;6.57;3.55;;;;;;;;;;6165169;23;20164;-88
2022/03/13 15:13:52;;;;;;;6.68;3.85;;;;;;;;;;6182363;23;20152;-89
2022/03/13 15:16:57;;;;;;;9.30;4.13;;;;;;;;;;6182801;23;20156;-89
2022/03/13 15:20:02;;;;;;;6.75;3.90;;;;;;;;;;6183774;23;20168;-88
2022/03/13 15:23:08;;;;;;;9.63;4.20;;;;;;;;;;6182602;23;20172;-88
2022/03/13 15:26:13;;;;;;;7.72;4.15;;;;;;;;;;6181281;23;20494;-88
2022/03/13 15:29:22;;;;;;;6.75;3.90;;;;;;;;;;6181404;23;20168;-88
2022/03/13 15:32:28;;;;;;;6.32;3.78;;;;;;;;;;6182098;23;20215;-90
2022/03/13 15:35:34;;;;;;;8.55;3.50;;;;;;;;;;6181341;23;20171;-88
2022/03/13 15:38:39;;;;;;;7.40;4.47;;;;;;;;;;6181064;23;20168;-90
2022/03/13 15:41:45;;;;;;;8.27;4.50;;;;;;;;;;6180769;23;20163;-89
2022/03/13 15:44:52;;;;;;;7.50;4.22;;;;;;;;;;6179302;23;20176;-90
2022/03/13 15:47:58;;;;;;;10.32;4.55;;;;;;;;;;6180735;23;20153;-89
2022/03/13 15:51:03;;;;;;;8.88;4.25;;;;;;;;;;6181054;23;20616;-89
2022/03/13 15:57:28;;;;;;;10.90;5.57;;;;;;;;;;6179799;23;20252;-90
2022/03/13 16:00:35;;;;;;;12.32;5.20;;;;;;;;;;6177116;23;20178;-90
2022/03/13 16:03:40;;;;;;;11.52;4.32;;;;;;;;;;6181975;23;20179;-90
2022/03/13 16:06:45;;;;;;;30.35;12.00;;;;;;;;;;6166791;23;20195;-89
2022/03/13 16:09:55;;;;;;;12.75;5.90;;;;;;;;;;6166048;23;20168;-89
2022/03/13 16:13:04;;;;;;;8.43;4.60;;;;;;;;;;6165929;23;20191;-88
2022/03/13 16:16:11;;;;;;;12.98;5.80;;;;;;;;;;6166313;23;20176;-89
2022/03/13 16:19:16;;;;;;;12.38;6.25;;;;;;;;;;6166447;23;20191;-90
2022/03/13 16:22:22;;;;;;;12.60;5.30;;;;;;;;;;6165673;23;20181;-88
2022/03/13 16:25:28;;;;;;;15.48;5.95;;;;;;;;;;6167569;23;20169;-89
2022/03/13 16:28:34;;;;;;;43.17;12.75;;;;;;;;;;6167446;23;20724;-91
2022/03/13 16:31:40;;;;;;;27.50;9.50;;;;;;;;;;6165122;23;20164;-88
2022/03/13 16:34:49;;;;;;;20.27;7.93;;;;;;;;;;6167500;23;20176;-89
2022/03/13 16:37:54;;;;;;;15.80;7.30;;;;;;;;;;6167514;23;20177;-89
2022/03/13 16:41:01;;;;;;;10.80;5.38;;;;;;;;;;6168153;23;20200;-89
2022/03/13 16:44:07;;;;;;;12.82;5.50;;;;;;;;;;6167253;23;20169;-88
2022/03/13 16:47:14;;;;;;;10.35;5.00;;;;;;;;;;6167361;23;20608;-90
2022/03/13 16:50:20;;;;;;;8.30;4.38;;;;;;;;;;6169093;23;20580;-90
2022/03/13 16:53:25;;;;;;;11.07;5.13;;;;;;;;;;6166390;23;20196;-92
2022/03/13 16:56:30;;;;;;;10.82;5.03;;;;;;;;;;6169155;23;20168;-90
2022/03/13 16:59:37;;;;;;;10.32;4.90;;;;;;;;;;6167533;23;20267;-91
2022/03/13 17:02:44;;;;;;;14.52;5.15;;;;;;;;;;6168355;23;20192;-90
2022/03/13 17:05:49;;;;;;;10.82;5.32;;;;;;;;;;6168189;23;20227;-90
2022/03/13 17:08:55;;;;;;;9.98;4.63;;;;;;;;;;6166158;23;20173;-89
2022/03/13 17:12:00;;;;;;;13.63;5.82;;;;;;;;;;6166078;23;20164;-91
2022/03/13 17:15:05;;;;;;;13.13;5.72;;;;;;;;;;6165642;23;20168;-90
2022/03/13 17:18:18;;;;;;;14.23;6.53;;;;;;;;;;6167726;23;20180;-89
2022/03/13 17:21:26;;;;;;;15.30;6.55;;;;;;;;;;6167302;23;20240;-90
2022/03/13 17:24:32;;;;;;;15.52;6.90;;;;;;;;;;6167511;23;20180;-91
2022/03/13 17:27:37;;;;;;;29.52;9.25;;;;;;;;;;6165843;23;20219;-90
2022/03/13 17:30:44;;;;;;;34.75;12.05;;;;;;;;;;6165893;23;20169;-90
2022/03/13 17:33:51;;;;;;;34.17;10.98;;;;;;;;;;6165551;23;20196;-90
2022/03/13 17:36:57;;;;;;;33.30;10.32;;;;;;;;;;6166057;23;20696;-92
2022/03/13 17:40:03;;;;;;;22.08;8.05;;;;;;;;;;6167282;23;20177;-92
2022/03/13 17:43:09;;;;;;;14.50;6.63;;;;;;;;;;6164611;23;20202;-89
2022/03/13 17:46:16;;;;;;;21.48;8.32;;;;;;;;;;6166404;23;20176;-90
2022/03/13 17:49:23;;;;;;;15.90;6.97;;;;;;;;;;6168071;23;20168;-90
2022/03/13 17:52:28;;;;;;;18.15;9.20;;;;;;;;;;6166454;23;20620;-91
2022/03/13 17:55:34;;;;;;;19.73;8.50;;;;;;;;;;6166762;23;20168;-91
2022/03/13 17:58:43;;;;;;;18.15;8.05;;;;;;;;;;6165849;23;20172;-89
2022/03/13 18:01:49;;;;;;;24.10;8.53;;;;;;;;;;6165323;23;20173;-89
2022/03/13 18:04:56;;;;;;;25.53;10.93;;;;;;;;;;6168164;23;20395;-89
2022/03/13 18:08:01;;;;;;;23.07;9.67;;;;;;;;;;6179279;23;20176;-89
2022/03/13 18:11:06;;;;;;;20.57;7.93;;;;;;;;;;6179214;23;20627;-90
2022/03/13 18:14:11;;;;;;;17.20;7.73;;;;;;;;;;6179088;23;20227;-89
2022/03/13 18:17:16;;;;;;;17.10;7.13;;;;;;;;;;6180316;23;20163;-91
2022/03/13 18:20:24;;;;;;;21.10;7.00;;;;;;;;;;6179913;23;20250;-89
2022/03/13 18:23:30;;;;;;;19.17;7.00;;;;;;;;;;6162875;23;20203;-90
2022/03/13 18:26:35;;;;;;;22.10;7.63;;;;;;;;;;6180740;23;20167;-89
2022/03/13 18:29:40;;;;;;;17.07;7.70;;;;;;;;;;6182878;23;20167;-89
2022/03/13 18:32:46;;;;;;;16.43;7.30;;;;;;;;;;6181893;23;20188;-89